createdAt,value
2023-04-16T00:02:57.562Z,1003.2
2023-04-16T00:08:03.665Z,1003.2
2023-04-16T00:13:09.763Z,1003.2
2023-04-16T00:18:15.856Z,1003.2
2023-04-16T00:23:21.959Z,1003.2
2023-04-16T00:28:28.046Z,1003.2
2023-04-16T00:33:34.145Z,1003.3
2023-04-16T00:38:40.250Z,1003.2
2023-04-16T00:43:46.346Z,1003.3
2023-04-16T00:48:52.427Z,1003.2
2023-04-16T00:53:58.528Z,1003.3
2023-04-16T00:59:03.636Z,1003.3
2023-04-16T01:04:09.743Z,1003.4
2023-04-16T01:09:15.840Z,1003.3
2023-04-16T01:14:21.931Z,1003.4
2023-04-16T01:19:28.031Z,1003.4
2023-04-16T01:24:34.142Z,1003.4
2023-04-16T01:29:40.243Z,1003.5
2023-04-16T01:34:46.335Z,1003.5
2023-04-16T01:39:52.416Z,1003.5
2023-04-16T01:44:58.535Z,1003.6
2023-04-16T01:50:04.613Z,1003.5
2023-04-16T01:55:10.715Z,1003.6
2023-04-16T02:00:16.816Z,1003.6
2023-04-16T02:05:21.912Z,1003.6
2023-04-16T02:10:28.015Z,1003.6
2023-04-16T02:15:34.123Z,1003.7
2023-04-16T02:20:40.208Z,1003.7
2023-04-16T02:25:46.292Z,1003.7
2023-04-16T02:30:52.389Z,1003.7
2023-04-16T02:35:58.508Z,1003.7
2023-04-16T02:41:04.615Z,1003.8
2023-04-16T02:46:10.691Z,1003.8
2023-04-16T02:51:16.791Z,1003.7
2023-04-16T02:56:22.894Z,1003.8
2023-04-16T03:01:28.973Z,1003.9
2023-04-16T03:06:35.071Z,1003.8
2023-04-16T03:11:40.196Z,1003.8
2023-04-16T03:16:46.288Z,1003.9
2023-04-16T03:21:52.393Z,1003.9
2023-04-16T03:26:58.482Z,1003.9
2023-04-16T03:32:04.587Z,1003.9
2023-04-16T03:37:10.670Z,1004.1
2023-04-16T03:42:16.767Z,1004
2023-04-16T03:47:22.865Z,1004
2023-04-16T03:52:28.964Z,1004.2
2023-04-16T03:57:35.055Z,1004.1
2023-04-16T04:02:41.145Z,1004.2
2023-04-16T04:07:47.261Z,1004.3
2023-04-16T04:12:53.339Z,1004.3
2023-04-16T04:17:59.456Z,1004.4
2023-04-16T04:23:04.579Z,1004.4
2023-04-16T04:28:10.663Z,1004.5
2023-04-16T04:33:16.764Z,1004.5
2023-04-16T04:38:22.840Z,1004.6
2023-04-16T04:43:28.950Z,1004.7
2023-04-16T04:48:35.036Z,1004.7
2023-04-16T04:53:41.138Z,1004.7
2023-04-16T04:58:47.239Z,1004.8
2023-04-16T05:03:53.331Z,1004.8
2023-04-16T05:08:59.418Z,1004.8
2023-04-16T05:14:05.531Z,1004.9
2023-04-16T05:19:11.623Z,1004.9
2023-04-16T05:24:17.724Z,1005
2023-04-16T05:29:22.820Z,1005.1
2023-04-16T05:34:28.924Z,1005.1
2023-04-16T05:39:35.020Z,1005.2
2023-04-16T05:44:41.111Z,1005.3
2023-04-16T05:49:47.215Z,1005.3
2023-04-16T05:54:53.314Z,1005.3
2023-04-16T05:59:59.411Z,1005.4
2023-04-16T06:05:05.507Z,1005.4
2023-04-16T06:10:11.599Z,1005.5
2023-04-16T06:15:17.716Z,1005.6
2023-04-16T06:20:23.773Z,1005.5
2023-04-16T06:25:29.910Z,1005.7
2023-04-16T06:30:35.993Z,1005.7
2023-04-16T06:35:41.096Z,1005.7
2023-04-16T06:40:47.192Z,1005.8
2023-04-16T06:46:04.413Z,1005.8
2023-04-16T06:50:59.384Z,1005.9
2023-04-16T06:56:05.504Z,1005.9
2023-04-16T07:01:11.566Z,1005.9
2023-04-16T07:06:17.671Z,1006
2023-04-16T07:11:23.795Z,1005.9
2023-04-16T07:16:29.874Z,1006
2023-04-16T07:21:35.954Z,1006.1
2023-04-16T07:26:42.058Z,1006.2
2023-04-16T07:31:48.147Z,1006.2
2023-04-16T07:36:54.245Z,1006.3
2023-04-16T07:41:59.363Z,1006.3
2023-04-16T07:47:05.660Z,1006.4
2023-04-16T07:52:11.597Z,1006.5
2023-04-16T07:57:17.648Z,1006.5
2023-04-16T08:02:23.757Z,1006.6
2023-04-16T08:07:29.839Z,1006.6
2023-04-16T08:12:35.947Z,1006.7
2023-04-16T08:17:42.030Z,1006.7
2023-04-16T08:22:48.132Z,1006.8
2023-04-16T08:27:54.261Z,1006.9
2023-04-16T08:33:00.321Z,1007
2023-04-16T08:38:06.429Z,1007
2023-04-16T08:43:12.537Z,1007.1
2023-04-16T08:48:17.641Z,1007
2023-04-16T08:53:23.729Z,1007
2023-04-16T08:58:29.819Z,1007.1
2023-04-16T09:03:35.932Z,1007.2
2023-04-16T09:08:42.030Z,1007.2
2023-04-16T09:13:48.133Z,1007.2
2023-04-16T09:18:54.227Z,1007.3
2023-04-16T09:24:00.353Z,1007.4
2023-04-16T09:29:06.438Z,1007.4
2023-04-16T09:34:12.515Z,1007.4
2023-04-16T09:39:18.613Z,1007.5
2023-04-16T09:44:24.714Z,1007.5
2023-04-16T09:49:30.809Z,1007.5
2023-04-16T09:54:35.917Z,1007.6
2023-04-16T09:59:42.011Z,1007.7
2023-04-16T10:04:48.111Z,1007.8
2023-04-16T10:09:54.217Z,1007.8
2023-04-16T10:15:00.300Z,1007.8
2023-04-16T10:20:06.399Z,1007.8
2023-04-16T10:25:12.502Z,1008
2023-04-16T10:30:18.593Z,1007.9
2023-04-16T10:35:24.686Z,1008
2023-04-16T10:40:30.867Z,1007.9
2023-04-16T10:45:36.896Z,1008
2023-04-16T10:50:42.981Z,1008.1
2023-04-16T10:55:49.082Z,1008.1
2023-04-16T11:00:54.210Z,1008.2
2023-04-16T11:06:00.295Z,1008.1
2023-04-16T11:11:06.400Z,1008.2
2023-04-16T11:16:12.475Z,1008.2
2023-04-16T11:21:18.566Z,1008.2
2023-04-16T11:26:24.668Z,1008.1
2023-04-16T11:31:30.824Z,1008.2
2023-04-16T11:36:37.024Z,1008.2
2023-04-16T11:41:42.963Z,1008.3
2023-04-16T11:46:49.063Z,1008.3
2023-04-16T11:51:55.152Z,1008.3
2023-04-16T11:57:01.243Z,1008.3
2023-04-16T12:02:07.367Z,1008.3
2023-04-16T12:07:12.460Z,1008.4
2023-04-16T12:12:18.563Z,1008.5
2023-04-16T12:17:24.686Z,1008.5
2023-04-16T12:22:30.780Z,1008.5
2023-04-16T12:27:36.977Z,1008.5
2023-04-16T12:32:41.965Z,1008.5
2023-04-16T12:37:48.070Z,1008.5
2023-04-16T12:42:54.152Z,1008.6
2023-04-16T12:48:00.246Z,1008.6
2023-04-16T12:53:06.363Z,1008.6
2023-04-16T12:58:12.573Z,1008.6
2023-04-16T13:03:18.553Z,1008.6
2023-04-16T13:08:24.645Z,1008.6
2023-04-16T13:13:30.749Z,1008.7
2023-04-16T13:18:36.842Z,1008.7
2023-04-16T13:23:42.943Z,1008.8
2023-04-16T13:28:49.104Z,1008.7
2023-04-16T13:33:55.268Z,1008.9
2023-04-16T13:39:00.313Z,1008.8
2023-04-16T13:44:06.360Z,1008.8
2023-04-16T13:49:12.434Z,1008.8
2023-04-16T13:54:18.528Z,1008.9
2023-04-16T13:59:24.677Z,1008.9
2023-04-16T14:04:30.740Z,1009
2023-04-16T14:09:36.822Z,1008.9
2023-04-16T14:14:42.907Z,1008.9
2023-04-16T14:19:49.100Z,1008.9
2023-04-16T14:24:55.152Z,1008.9
2023-04-16T14:30:01.203Z,1008.9
2023-04-16T14:35:07.295Z,1009
2023-04-16T14:40:13.518Z,1009
2023-04-16T14:45:18.549Z,1009
2023-04-16T14:50:24.600Z,1009
2023-04-16T14:55:30.714Z,1008.9
2023-04-16T15:00:36.810Z,1009
2023-04-16T15:05:42.912Z,1009.1
2023-04-16T15:10:48.983Z,1009.1
2023-04-16T15:15:55.112Z,1009
2023-04-16T15:21:01.198Z,1009.1
2023-04-16T15:26:07.289Z,1009.1
2023-04-16T15:31:13.437Z,1009.2
2023-04-16T15:36:19.493Z,1009.2
2023-04-16T15:41:25.581Z,1009.2
2023-04-16T15:46:31.692Z,1009.2
2023-04-16T15:51:36.822Z,1009.3
2023-04-16T15:56:42.875Z,1009.4
2023-04-16T16:01:48.995Z,1009.4
2023-04-16T16:06:55.068Z,1009.4
2023-04-16T16:12:01.170Z,1009.5
2023-04-16T16:17:07.269Z,1009.5
2023-04-16T16:22:13.362Z,1009.5
2023-04-16T16:27:19.461Z,1009.5
2023-04-16T16:32:25.549Z,1009.5
2023-04-16T16:37:31.668Z,1009.5
2023-04-16T16:42:37.741Z,1009.5
2023-04-16T16:47:43.844Z,1009.5
2023-04-16T16:52:49.961Z,1009.6
2023-04-16T16:57:55.105Z,1009.6
2023-04-16T17:03:01.160Z,1009.6
2023-04-16T17:08:07.285Z,1009.7
2023-04-16T17:13:13.368Z,1009.7
2023-04-16T17:18:19.459Z,1009.7
2023-04-16T17:23:25.565Z,1009.7
2023-04-16T17:28:31.636Z,1009.8
2023-04-16T17:33:37.741Z,1009.9
2023-04-16T17:38:43.831Z,1009.9
2023-04-16T17:43:49.937Z,1010
2023-04-16T17:48:56.033Z,1010
2023-04-16T17:54:02.116Z,1010.1
2023-04-16T17:59:08.218Z,1010.1
2023-04-16T18:04:13.343Z,1010.1
2023-04-16T18:09:19.440Z,1010.2
2023-04-16T18:14:25.609Z,1010.2
2023-04-16T18:19:31.629Z,1010.3
2023-04-16T18:24:37.726Z,1010.3
2023-04-16T18:29:43.818Z,1010.4
2023-04-16T18:34:49.959Z,1010.4
2023-04-16T18:39:56.015Z,1010.5
2023-04-16T18:45:02.125Z,1010.5
2023-04-16T18:50:08.197Z,1010.6
2023-04-16T18:55:14.295Z,1010.6
2023-04-16T19:00:20.394Z,1010.6
2023-04-16T19:05:26.496Z,1010.6
2023-04-16T19:10:31.674Z,1010.7
2023-04-16T19:15:37.702Z,1010.6
2023-04-16T19:20:43.819Z,1010.6
2023-04-16T19:25:49.885Z,1010.6
2023-04-16T19:30:56.000Z,1010.6
2023-04-16T19:36:02.093Z,1010.7
2023-04-16T19:41:08.203Z,1010.6
2023-04-16T19:46:14.300Z,1010.7
2023-04-16T19:51:20.483Z,1010.7
2023-04-16T19:56:26.496Z,1010.7
2023-04-16T20:01:32.578Z,1010.8
2023-04-16T20:06:38.726Z,1010.8
2023-04-16T20:11:44.750Z,1010.8
2023-04-16T20:16:49.870Z,1010.8
2023-04-16T20:21:56.020Z,1010.9
2023-04-16T20:27:02.077Z,1010.8
2023-04-16T20:32:08.160Z,1010.8
2023-04-16T20:37:14.283Z,1010.8
2023-04-16T20:42:20.360Z,1010.8
2023-04-16T20:47:26.507Z,1010.9
2023-04-16T20:52:32.600Z,1010.9
2023-04-16T20:57:38.669Z,1010.9
2023-04-16T21:02:44.782Z,1010.8
2023-04-16T21:07:51.007Z,1010.9
2023-04-16T21:12:56.961Z,1010.9
2023-04-16T21:18:03.047Z,1011
2023-04-16T21:23:08.175Z,1011.1
2023-04-16T21:28:14.251Z,1011.1
2023-04-16T21:33:20.358Z,1011
2023-04-16T21:38:26.470Z,1011
2023-04-16T21:43:32.553Z,1011.1
2023-04-16T21:48:38.646Z,1011
2023-04-16T21:53:44.732Z,1011
2023-04-16T21:58:50.835Z,1011
2023-04-16T22:03:56.951Z,1011
2023-04-16T22:09:03.007Z,1011
2023-04-16T22:14:09.141Z,1011
2023-04-16T22:19:15.248Z,1011.1
2023-04-16T22:24:21.316Z,1011.1
2023-04-16T22:29:26.441Z,1011.1
2023-04-16T22:34:32.523Z,1011.2
2023-04-16T22:39:38.665Z,1011.1
2023-04-16T22:44:44.778Z,1011.1
2023-04-16T22:49:50.816Z,1011.1
2023-04-16T22:54:56.935Z,1011.2
2023-04-16T23:00:03.006Z,1011.2
2023-04-16T23:05:09.095Z,1011.2
2023-04-16T23:10:15.201Z,1011.1
2023-04-16T23:15:21.303Z,1011.1
2023-04-16T23:20:27.388Z,1011.1
2023-04-16T23:25:33.477Z,1011.1
2023-04-16T23:30:39.582Z,1011.1
2023-04-16T23:35:44.685Z,1011.1
2023-04-16T23:40:50.799Z,1011.1
2023-04-16T23:45:56.898Z,1011.1
2023-04-16T23:51:02.991Z,1011.2
2023-04-16T23:56:09.075Z,1011.1
